createdAt,value
2022-11-10T00:01:20.040Z,58.47
2022-11-10T00:03:40.521Z,58.61
2022-11-10T00:06:03.475Z,58.46
2022-11-10T00:08:23.764Z,58.53
2022-11-10T00:11:02.144Z,58.58
2022-11-10T00:13:25.011Z,58.53
2022-11-10T00:16:03.921Z,58.54
2022-11-10T00:18:24.215Z,58.33
2022-11-10T00:20:45.141Z,58.34
2022-11-10T00:23:05.358Z,58.53
2022-11-10T00:25:28.273Z,58.41
2022-11-10T00:28:09.333Z,58.34
2022-11-10T00:30:29.642Z,58.34
2022-11-10T00:32:49.949Z,58.42
2022-11-10T00:35:10.240Z,58.48
2022-11-10T00:37:30.244Z,58.27
2022-11-10T00:39:52.650Z,58.42
2022-11-10T00:42:13.036Z,58.35
2022-11-10T00:44:33.627Z,58.48
2022-11-10T00:46:53.612Z,58.32
2022-11-10T00:49:14.029Z,58.13
2022-11-10T00:51:34.499Z,58.28
2022-11-10T00:53:55.546Z,58.29
2022-11-10T00:56:15.837Z,58.34
2022-11-10T00:58:36.987Z,58.41
2022-11-10T01:01:04.174Z,58.46
2022-11-10T01:03:24.614Z,58.39
2022-11-10T01:05:45.057Z,58.35
2022-11-10T01:08:05.788Z,58.33
2022-11-10T01:10:28.463Z,58.32
2022-11-10T01:12:49.036Z,58.34
2022-11-10T01:15:10.366Z,58.18
2022-11-10T01:17:30.705Z,58.07
2022-11-10T01:19:51.058Z,58.04
2022-11-10T01:22:11.317Z,58.03
2022-11-10T01:24:32.578Z,58.18
2022-11-10T01:26:52.685Z,58.09
2022-11-10T01:29:14.732Z,57.90
2022-11-10T01:31:46.976Z,58.05
2022-11-10T01:34:07.514Z,58.19
2022-11-10T01:36:27.866Z,58.02
2022-11-10T01:38:48.148Z,58.03
2022-11-10T01:41:10.090Z,58.19
2022-11-10T01:43:31.173Z,58.02
2022-11-10T01:46:06.688Z,57.95
2022-11-10T01:48:59.146Z,57.99
2022-11-10T01:51:31.602Z,57.85
2022-11-10T01:53:58.789Z,57.90
2022-11-10T01:56:20.956Z,58.09
2022-11-10T01:58:50.978Z,58.05
2022-11-10T02:01:11.467Z,57.97
2022-11-10T02:03:54.056Z,57.81
2022-11-10T02:06:16.361Z,57.81
2022-11-10T02:08:36.797Z,57.72
2022-11-10T02:10:57.137Z,57.76
2022-11-10T02:13:17.328Z,57.87
2022-11-10T02:15:38.178Z,57.84
2022-11-10T02:17:58.440Z,57.68
2022-11-10T02:20:26.876Z,57.52
2022-11-10T02:22:47.318Z,57.63
2022-11-10T02:25:07.984Z,57.73
2022-11-10T02:27:40.593Z,57.83
2022-11-10T02:30:01.702Z,57.71
2022-11-10T02:32:22.588Z,57.72
2022-11-10T02:34:43.494Z,57.63
2022-11-10T02:37:04.069Z,57.57
2022-11-10T02:39:24.128Z,57.94
2022-11-10T02:41:44.254Z,57.60
2022-11-10T02:44:13.483Z,57.89
2022-11-10T02:46:34.064Z,58.03
2022-11-10T02:48:54.743Z,57.66
2022-11-10T02:51:14.959Z,57.75
2022-11-10T02:53:38.269Z,57.64
2022-11-10T02:55:59.130Z,57.67
2022-11-10T02:58:19.421Z,57.68
2022-11-10T03:00:39.462Z,57.39
2022-11-10T03:03:07.107Z,57.52
2022-11-10T03:05:31.020Z,57.61
2022-11-10T03:07:55.906Z,57.52
2022-11-10T03:10:17.871Z,57.54
2022-11-10T03:12:38.292Z,57.54
2022-11-10T03:14:59.833Z,57.59
2022-11-10T03:17:21.266Z,57.47
2022-11-10T03:19:41.517Z,57.31
2022-11-10T03:22:02.130Z,57.55
2022-11-10T03:24:22.068Z,57.55
2022-11-10T03:26:49.568Z,57.51
2022-11-10T03:29:09.755Z,57.66
2022-11-10T03:31:29.856Z,57.46
2022-11-10T03:33:50.049Z,57.58
2022-11-10T03:36:17.656Z,57.28
2022-11-10T03:38:37.979Z,57.35
2022-11-10T03:43:39.522Z,57.39
2022-11-10T03:45:59.675Z,57.46
2022-11-10T03:48:23.128Z,57.36
2022-11-10T03:50:46.073Z,57.52
2022-11-10T03:53:06.412Z,57.39
2022-11-10T03:55:27.157Z,57.31
2022-11-10T03:57:54.795Z,57.45
2022-11-10T04:00:15.313Z,57.46
2022-11-10T04:02:36.297Z,57.31
2022-11-10T04:05:15.249Z,57.33
2022-11-10T04:07:56.644Z,57.40
2022-11-10T04:10:16.986Z,57.56
2022-11-10T04:12:55.704Z,57.39
2022-11-10T04:15:34.629Z,57.42
2022-11-10T04:17:54.949Z,57.43
2022-11-10T04:20:15.514Z,57.39
2022-11-10T04:22:54.407Z,57.40
2022-11-10T04:25:14.748Z,57.51
2022-11-10T04:27:34.980Z,57.39
2022-11-10T04:29:55.202Z,57.46
2022-11-10T04:32:15.372Z,57.57
2022-11-10T04:34:38.588Z,57.32
2022-11-10T04:36:59.074Z,57.50
2022-11-10T04:39:19.080Z,57.47
2022-11-10T04:41:39.743Z,57.42
2022-11-10T04:44:00.721Z,57.46
2022-11-10T04:46:26.639Z,57.38
2022-11-10T04:48:49.918Z,57.39
2022-11-10T04:51:10.193Z,57.49
2022-11-10T04:53:30.310Z,57.54
2022-11-10T04:55:50.662Z,57.60
2022-11-10T04:58:11.728Z,57.46
2022-11-10T05:00:32.502Z,57.45
2022-11-10T05:02:52.617Z,57.43
2022-11-10T05:05:15.884Z,57.30
2022-11-10T05:07:35.967Z,57.48
2022-11-10T05:09:56.328Z,57.35
2022-11-10T05:12:29.985Z,57.43
2022-11-10T05:14:52.276Z,57.51
2022-11-10T05:17:12.341Z,57.57
2022-11-10T05:19:32.579Z,57.29
2022-11-10T05:21:54.638Z,57.50
2022-11-10T05:24:15.030Z,57.49
2022-11-10T05:26:35.105Z,57.42
2022-11-10T05:29:02.287Z,57.55
2022-11-10T05:31:22.686Z,57.44
2022-11-10T05:33:45.197Z,57.48
2022-11-10T05:36:09.761Z,57.53
2022-11-10T05:38:29.742Z,57.54
2022-11-10T05:40:50.240Z,57.58
2022-11-10T05:43:10.809Z,57.70
2022-11-10T05:45:31.018Z,57.57
2022-11-10T05:47:51.612Z,57.54
2022-11-10T05:50:11.953Z,57.69
2022-11-10T05:52:32.784Z,57.71
2022-11-10T05:54:55.498Z,57.55
2022-11-10T05:57:21.941Z,57.87
2022-11-10T05:59:42.416Z,57.58
2022-11-10T06:02:02.758Z,58.20
2022-11-10T06:04:23.131Z,57.96
2022-11-10T06:06:46.303Z,57.75
2022-11-10T06:09:09.157Z,57.93
2022-11-10T06:11:29.664Z,57.97
2022-11-10T06:13:50.727Z,58.07
2022-11-10T06:16:11.336Z,57.81
2022-11-10T06:18:31.860Z,57.89
2022-11-10T06:20:57.074Z,57.91
2022-11-10T06:23:17.387Z,57.98
2022-11-10T06:25:42.412Z,57.72
2022-11-10T06:28:06.770Z,57.79
2022-11-10T06:30:28.213Z,57.96
2022-11-10T06:32:49.833Z,57.94
2022-11-10T06:35:11.317Z,57.85
2022-11-10T06:37:41.135Z,57.72
2022-11-10T06:40:01.795Z,57.80
2022-11-10T06:42:22.208Z,57.86
2022-11-10T06:44:42.691Z,58.00
2022-11-10T06:47:02.731Z,58.26
2022-11-10T06:49:22.880Z,57.99
2022-11-10T06:51:42.860Z,58.01
2022-11-10T06:54:03.158Z,57.84
2022-11-10T06:56:26.173Z,57.97
2022-11-10T06:58:46.580Z,58.05
2022-11-10T07:01:07.091Z,57.99
2022-11-10T07:03:28.972Z,58.02
2022-11-10T07:05:49.448Z,58.07
2022-11-10T07:08:15.869Z,58.04
2022-11-10T07:10:37.267Z,57.96
2022-11-10T07:12:59.345Z,58.06
2022-11-10T07:15:21.731Z,58.16
2022-11-10T07:17:43.747Z,58.03
2022-11-10T07:20:04.519Z,57.99
2022-11-10T07:22:25.117Z,58.04
2022-11-10T07:24:46.684Z,57.96
2022-11-10T07:27:08.280Z,57.90
2022-11-10T07:29:28.321Z,58.01
2022-11-10T07:31:50.356Z,58.31
2022-11-10T07:34:11.096Z,58.47
2022-11-10T07:36:31.416Z,59.50
2022-11-10T07:38:52.864Z,59.31
2022-11-10T07:41:13.393Z,58.92
2022-11-10T07:43:35.744Z,59.63
2022-11-10T07:45:56.152Z,60.17
2022-11-10T07:48:17.043Z,60.03
2022-11-10T07:50:37.717Z,60.97
2022-11-10T07:53:10.156Z,62.24
2022-11-10T07:55:30.501Z,61.76
2022-11-10T07:58:01.164Z,62.06
2022-11-10T08:00:21.475Z,61.49
2022-11-10T08:02:41.802Z,62.61
2022-11-10T08:05:02.492Z,61.91
2022-11-10T08:07:25.922Z,61.99
2022-11-10T08:09:46.346Z,62.08
2022-11-10T08:12:07.858Z,61.95
2022-11-10T08:14:28.087Z,61.96
2022-11-10T08:16:48.612Z,61.72
2022-11-10T08:19:09.469Z,62.09
2022-11-10T08:21:30.481Z,62.04
2022-11-10T08:23:50.635Z,62.00
2022-11-10T08:26:16.658Z,62.37
2022-11-10T08:28:38.848Z,61.67
2022-11-10T08:31:04.273Z,61.69
2022-11-10T08:33:28.975Z,61.76
2022-11-10T08:35:51.991Z,62.01
2022-11-10T08:38:18.648Z,61.12
2022-11-10T08:40:40.288Z,61.54
2022-11-10T08:43:02.994Z,61.18
2022-11-10T08:45:23.331Z,61.13
2022-11-10T08:47:46.183Z,61.44
2022-11-10T08:50:08.333Z,61.07
2022-11-10T08:52:28.561Z,61.11
2022-11-10T08:54:49.229Z,60.77
2022-11-10T08:57:10.752Z,60.63
2022-11-10T08:59:31.395Z,60.93
2022-11-10T09:01:51.968Z,60.76
2022-11-10T09:04:20.542Z,60.72
2022-11-10T09:06:41.902Z,61.08
2022-11-10T09:09:02.180Z,60.96
2022-11-10T09:11:22.704Z,60.96
2022-11-10T09:13:44.055Z,60.77
2022-11-10T09:16:05.228Z,60.85
2022-11-10T09:18:26.653Z,60.81
2022-11-10T09:20:51.669Z,60.73
2022-11-10T09:23:17.647Z,61.12
2022-11-10T09:25:38.990Z,60.89
2022-11-10T09:27:59.229Z,60.80
2022-11-10T09:30:19.801Z,61.04
2022-11-10T09:32:40.191Z,60.98
2022-11-10T09:35:01.255Z,60.67
2022-11-10T09:37:23.640Z,60.97
2022-11-10T09:39:44.144Z,60.68
2022-11-10T09:42:06.887Z,60.56
2022-11-10T09:44:38.745Z,60.45
2022-11-10T09:47:56.349Z,60.79
2022-11-10T09:50:44.647Z,60.43
2022-11-10T09:53:10.827Z,60.39
2022-11-10T09:55:43.296Z,60.51
2022-11-10T09:58:04.472Z,60.26
2022-11-10T10:00:25.538Z,60.65
2022-11-10T10:02:58.172Z,60.57
2022-11-10T10:05:47.466Z,60.52
2022-11-10T10:08:14.847Z,60.67
2022-11-10T10:10:47.413Z,60.69
2022-11-10T10:13:45.653Z,60.86
2022-11-10T10:16:16.566Z,60.98
2022-11-10T10:19:13.945Z,60.90
2022-11-10T10:21:48.287Z,61.02
2022-11-10T10:24:22.065Z,60.96
2022-11-10T10:26:52.419Z,60.82
2022-11-10T10:29:21.268Z,61.09
2022-11-10T10:31:43.849Z,60.80
2022-11-10T10:34:05.080Z,60.89
2022-11-10T10:36:30.661Z,60.59
2022-11-10T10:39:03.527Z,60.96
2022-11-10T10:41:30.779Z,60.83
2022-11-10T10:43:54.878Z,60.85
2022-11-10T10:46:16.262Z,60.70
2022-11-10T10:48:36.464Z,60.68
2022-11-10T10:50:56.751Z,60.64
2022-11-10T10:53:24.406Z,60.88
2022-11-10T10:55:53.953Z,60.79
2022-11-10T10:58:52.940Z,60.65
2022-11-10T11:01:16.228Z,60.28
2022-11-10T11:03:45.820Z,59.95
2022-11-10T11:06:15.125Z,59.75
2022-11-10T11:08:42.884Z,59.65
2022-11-10T11:11:10.969Z,60.17
2022-11-10T11:13:34.440Z,60.44
2022-11-10T11:16:07.289Z,60.83
2022-11-10T11:18:30.361Z,60.88
2022-11-10T11:21:18.404Z,60.55
2022-11-10T11:24:20.585Z,59.85
2022-11-10T11:26:46.165Z,59.39
2022-11-10T11:29:51.066Z,59.04
2022-11-10T11:32:25.347Z,59.11
2022-11-10T11:35:13.923Z,59.02
2022-11-10T11:37:52.061Z,59.29
2022-11-10T11:40:40.555Z,59.12
2022-11-10T11:43:28.062Z,59.65
2022-11-10T11:45:58.507Z,59.85
2022-11-10T11:48:47.556Z,60.27
2022-11-10T11:51:20.091Z,60.00
2022-11-10T11:54:18.485Z,59.93
2022-11-10T11:56:44.862Z,60.23
2022-11-10T11:59:17.364Z,59.70
2022-11-10T12:02:03.919Z,59.99
2022-11-10T12:04:51.637Z,59.90
2022-11-10T12:07:20.896Z,59.85
2022-11-10T12:09:47.109Z,59.42
2022-11-10T12:12:22.760Z,59.02
2022-11-10T12:14:58.395Z,58.22
2022-11-10T12:17:29.617Z,58.17
2022-11-10T12:20:38.416Z,57.65
2022-11-10T12:23:43.167Z,57.16
2022-11-10T12:26:26.478Z,57.13
2022-11-10T12:28:55.772Z,56.42
2022-11-10T12:31:21.568Z,56.56
2022-11-10T12:33:53.519Z,55.92
2022-11-10T12:36:17.825Z,56.03
2022-11-10T12:39:00.516Z,54.30
2022-11-10T12:41:32.930Z,54.70
2022-11-10T12:44:21.428Z,53.68
2022-11-10T12:46:49.475Z,53.92
2022-11-10T12:49:36.578Z,53.03
2022-11-10T12:52:18.455Z,53.30
2022-11-10T12:54:42.555Z,53.61
2022-11-10T12:57:13.614Z,53.54
2022-11-10T12:59:51.837Z,53.10
2022-11-10T13:02:18.849Z,53.43
2022-11-10T13:04:49.779Z,53.71
2022-11-10T13:07:17.072Z,53.53
2022-11-10T13:09:40.354Z,53.53
2022-11-10T13:12:16.942Z,53.41
2022-11-10T13:14:38.479Z,53.45
2022-11-10T13:17:01.741Z,53.31
2022-11-10T13:19:25.203Z,52.99
2022-11-10T13:21:51.506Z,52.71
2022-11-10T13:24:19.883Z,52.06
2022-11-10T13:26:39.848Z,52.66
2022-11-10T13:29:02.700Z,52.43
2022-11-10T13:31:55.035Z,52.14
2022-11-10T13:34:18.695Z,52.11
2022-11-10T13:36:47.029Z,51.97
2022-11-10T13:39:45.625Z,52.20
2022-11-10T13:42:09.265Z,52.13
2022-11-10T13:44:33.327Z,52.62
2022-11-10T13:47:10.884Z,52.20
2022-11-10T13:49:40.425Z,52.34
2022-11-10T13:52:17.310Z,51.84
2022-11-10T13:55:09.481Z,51.97
2022-11-10T13:57:38.923Z,51.94
2022-11-10T14:00:11.380Z,51.79
2022-11-10T14:02:34.750Z,51.75
2022-11-10T14:04:56.745Z,51.96
2022-11-10T14:07:19.739Z,52.30
2022-11-10T14:09:48.823Z,51.94
2022-11-10T14:12:21.639Z,51.84
2022-11-10T14:15:06.935Z,52.26
2022-11-10T14:17:45.754Z,52.15
2022-11-10T14:20:32.811Z,52.39
2022-11-10T14:22:53.858Z,52.61
2022-11-10T14:25:39.712Z,52.62
2022-11-10T14:27:59.891Z,52.44
2022-11-10T14:30:26.058Z,52.71
2022-11-10T14:35:51.786Z,52.67
2022-11-10T14:38:27.384Z,52.34
2022-11-10T14:40:48.852Z,52.74
2022-11-10T14:43:30.220Z,52.77
2022-11-10T14:45:52.905Z,52.60
2022-11-10T14:48:20.295Z,52.49
2022-11-10T14:50:58.617Z,52.16
2022-11-10T14:53:29.292Z,52.28
2022-11-10T14:55:54.639Z,52.10
2022-11-10T14:58:34.237Z,52.36
2022-11-10T15:01:10.647Z,51.87
2022-11-10T15:03:39.622Z,51.99
2022-11-10T15:06:24.564Z,51.91
2022-11-10T15:08:52.835Z,52.16
2022-11-10T15:11:39.851Z,51.65
2022-11-10T15:14:00.237Z,52.01
2022-11-10T15:16:31.781Z,51.68
2022-11-10T15:18:55.492Z,52.01
2022-11-10T15:21:21.854Z,51.62
2022-11-10T15:23:43.884Z,51.84
2022-11-10T15:26:16.769Z,51.82
2022-11-10T15:28:49.608Z,51.93
2022-11-10T15:31:34.612Z,51.55
2022-11-10T15:34:01.112Z,51.83
2022-11-10T15:36:32.269Z,51.78
2022-11-10T15:39:23.261Z,51.56
2022-11-10T15:41:47.650Z,51.92
2022-11-10T15:44:23.572Z,51.79
2022-11-10T15:46:44.774Z,51.97
2022-11-10T15:49:11.309Z,52.09
2022-11-10T15:51:34.784Z,52.17
2022-11-10T15:53:55.022Z,51.99
2022-11-10T15:56:17.866Z,52.05
2022-11-10T15:58:37.923Z,52.05
2022-11-10T16:00:58.508Z,52.05
2022-11-10T16:03:21.048Z,51.97
2022-11-10T16:05:41.525Z,52.26
2022-11-10T16:08:10.507Z,52.17
2022-11-10T16:10:30.931Z,52.33
2022-11-10T16:12:51.097Z,52.19
2022-11-10T16:15:19.830Z,52.14
2022-11-10T16:17:39.897Z,52.34
2022-11-10T16:20:00.427Z,52.32
2022-11-10T16:22:21.057Z,52.56
2022-11-10T16:24:42.123Z,52.47
2022-11-10T16:27:05.774Z,52.37
2022-11-10T16:29:26.827Z,52.11
2022-11-10T16:31:47.080Z,52.27
2022-11-10T16:34:12.639Z,52.31
2022-11-10T16:36:34.324Z,52.34
2022-11-10T16:38:58.482Z,52.42
2022-11-10T16:41:19.190Z,52.56
2022-11-10T16:43:39.826Z,52.61
2022-11-10T16:46:05.883Z,52.51
2022-11-10T16:48:32.853Z,52.35
2022-11-10T16:50:56.012Z,52.54
2022-11-10T16:53:18.202Z,52.62
2022-11-10T16:55:38.770Z,52.60
2022-11-10T16:57:59.352Z,52.65
2022-11-10T17:00:20.002Z,52.65
2022-11-10T17:02:41.685Z,52.73
2022-11-10T17:05:02.229Z,52.59
2022-11-10T17:07:26.780Z,52.90
2022-11-10T17:09:47.311Z,52.73
2022-11-10T17:12:12.693Z,52.64
2022-11-10T17:14:34.147Z,52.82
2022-11-10T17:16:56.908Z,52.84
2022-11-10T17:19:24.090Z,52.60
2022-11-10T17:21:45.536Z,52.86
2022-11-10T17:24:06.990Z,52.73
2022-11-10T17:26:27.970Z,52.79
2022-11-10T17:28:50.941Z,53.02
2022-11-10T17:31:13.734Z,53.07
2022-11-10T17:33:36.664Z,53.06
2022-11-10T17:35:58.017Z,52.85
2022-11-10T17:38:24.376Z,52.99
2022-11-10T17:40:44.839Z,53.23
2022-11-10T17:43:04.902Z,53.06
2022-11-10T17:45:27.365Z,53.18
2022-11-10T17:47:49.086Z,53.25
2022-11-10T17:50:09.372Z,53.14
2022-11-10T17:52:29.929Z,53.23
2022-11-10T17:54:50.329Z,53.38
2022-11-10T17:57:11.090Z,53.23
2022-11-10T17:59:31.681Z,53.42
2022-11-10T18:01:52.589Z,53.27
2022-11-10T18:04:16.456Z,53.44
2022-11-10T18:06:36.817Z,53.33
2022-11-10T18:08:57.485Z,53.22
2022-11-10T18:11:22.037Z,53.32
2022-11-10T18:13:43.892Z,53.43
2022-11-10T18:16:05.000Z,53.58
2022-11-10T18:18:25.362Z,53.70
2022-11-10T18:20:45.779Z,53.66
2022-11-10T18:23:11.190Z,53.66
2022-11-10T18:25:31.539Z,53.75
2022-11-10T18:27:52.484Z,53.73
2022-11-10T18:30:14.539Z,53.86
2022-11-10T18:32:34.761Z,53.79
2022-11-10T18:34:55.356Z,53.78
2022-11-10T18:37:19.164Z,53.78
2022-11-10T18:39:39.464Z,53.76
2022-11-10T18:42:00.258Z,53.66
2022-11-10T18:44:21.188Z,53.79
2022-11-10T18:46:45.285Z,53.78
2022-11-10T18:49:05.475Z,53.79
2022-11-10T18:51:26.147Z,53.93
2022-11-10T18:53:46.241Z,53.94
2022-11-10T18:56:09.318Z,53.89
2022-11-10T18:58:29.707Z,54.05
2022-11-10T19:00:51.751Z,54.16
2022-11-10T19:03:14.811Z,54.21
2022-11-10T19:05:35.452Z,54.28
2022-11-10T19:07:55.955Z,54.16
2022-11-10T19:10:19.181Z,54.19
2022-11-10T19:12:39.427Z,54.27
2022-11-10T19:15:01.494Z,54.32
2022-11-10T19:17:22.256Z,54.36
2022-11-10T19:19:42.896Z,54.24
2022-11-10T19:22:04.957Z,54.41
2022-11-10T19:24:28.357Z,54.19
2022-11-10T19:26:51.686Z,54.40
2022-11-10T19:29:16.110Z,54.41
2022-11-10T19:31:36.664Z,54.41
2022-11-10T19:33:57.709Z,54.59
2022-11-10T19:36:23.176Z,54.41
2022-11-10T19:38:47.535Z,54.58
2022-11-10T19:41:12.468Z,54.49
2022-11-10T19:43:33.549Z,54.54
2022-11-10T19:45:53.822Z,54.61
2022-11-10T19:48:17.312Z,54.57
2022-11-10T19:50:37.609Z,54.75
2022-11-10T19:52:58.204Z,54.60
2022-11-10T19:55:18.552Z,54.84
2022-11-10T19:57:38.513Z,54.76
2022-11-10T19:59:58.700Z,54.71
2022-11-10T20:02:19.125Z,54.78
2022-11-10T20:04:59.310Z,54.79
2022-11-10T20:07:58.607Z,54.84
2022-11-10T20:10:18.567Z,54.98
2022-11-10T20:12:41.575Z,54.84
2022-11-10T20:15:01.917Z,54.66
2022-11-10T20:17:21.977Z,54.91
2022-11-10T20:19:42.501Z,54.89
2022-11-10T20:22:02.986Z,54.94
2022-11-10T20:24:23.122Z,54.90
2022-11-10T20:26:45.314Z,55.02
2022-11-10T20:29:05.616Z,54.87
2022-11-10T20:31:26.303Z,54.92
2022-11-10T20:33:48.494Z,54.86
2022-11-10T20:36:18.936Z,55.01
2022-11-10T20:38:47.133Z,55.01
2022-11-10T20:41:13.590Z,55.10
2022-11-10T20:43:38.261Z,54.92
2022-11-10T20:45:58.829Z,54.48
2022-11-10T20:48:19.572Z,54.87
2022-11-10T20:50:40.643Z,54.94
2022-11-10T20:53:01.907Z,55.07
2022-11-10T20:55:51.709Z,55.13
2022-11-10T20:58:03.145Z,55.13
2022-11-10T21:00:24.202Z,55.27
2022-11-10T21:02:44.539Z,55.25
2022-11-10T21:05:05.899Z,55.29
2022-11-10T21:07:29.700Z,55.30
2022-11-10T21:09:50.194Z,55.18
2022-11-10T21:12:31.404Z,55.35
2022-11-10T21:14:51.835Z,55.46
2022-11-10T21:17:12.295Z,55.40
2022-11-10T21:19:34.581Z,55.28
2022-11-10T21:21:54.579Z,55.20
2022-11-10T21:24:15.252Z,55.36
2022-11-10T21:26:35.813Z,55.29
2022-11-10T21:28:57.528Z,55.27
2022-11-10T21:31:18.609Z,55.52
2022-11-10T21:33:38.671Z,55.36
2022-11-10T21:36:05.250Z,55.31
2022-11-10T21:38:27.235Z,55.48
2022-11-10T21:40:47.682Z,55.29
2022-11-10T21:43:09.080Z,55.11
2022-11-10T21:45:29.856Z,55.35
2022-11-10T21:47:52.459Z,55.23
2022-11-10T21:50:15.165Z,55.48
2022-11-10T21:52:35.799Z,55.30
2022-11-10T21:54:56.375Z,55.51
2022-11-10T21:57:18.941Z,55.20
2022-11-10T21:59:39.665Z,55.22
2022-11-10T22:02:00.361Z,55.15
2022-11-10T22:04:23.386Z,55.51
2022-11-10T22:07:08.948Z,55.28
2022-11-10T22:09:49.278Z,55.61
2022-11-10T22:12:35.095Z,55.50
2022-11-10T22:15:15.671Z,55.30
2022-11-10T22:17:54.813Z,55.62
2022-11-10T22:20:16.245Z,55.26
2022-11-10T22:22:36.514Z,55.46
2022-11-10T22:24:57.367Z,55.78
2022-11-10T22:27:17.493Z,55.70
2022-11-10T22:29:38.124Z,55.82
2022-11-10T22:31:59.827Z,55.60
2022-11-10T22:34:20.969Z,55.34
2022-11-10T22:36:41.254Z,55.14
2022-11-10T22:39:03.943Z,55.44
2022-11-10T22:41:43.953Z,55.28
2022-11-10T22:44:05.232Z,55.25
2022-11-10T22:46:28.447Z,55.37
2022-11-10T22:48:48.467Z,55.51
2022-11-10T22:51:09.078Z,55.67
2022-11-10T22:53:30.681Z,55.60
2022-11-10T22:55:50.865Z,55.33
2022-11-10T22:58:14.133Z,55.64
2022-11-10T23:00:34.248Z,55.44
2022-11-10T23:02:54.727Z,55.47
2022-11-10T23:05:15.745Z,55.59
2022-11-10T23:07:36.010Z,55.79
2022-11-10T23:09:56.164Z,55.50
2022-11-10T23:12:16.727Z,55.38
2022-11-10T23:14:37.071Z,55.63
2022-11-10T23:16:57.440Z,55.30
2022-11-10T23:19:17.610Z,55.45
2022-11-10T23:21:37.721Z,55.29
2022-11-10T23:23:58.344Z,55.54
2022-11-10T23:26:24.067Z,55.55
2022-11-10T23:28:47.994Z,55.65
2022-11-10T23:31:18.065Z,55.42
2022-11-10T23:33:39.690Z,55.58
2022-11-10T23:36:00.447Z,55.47
2022-11-10T23:38:20.594Z,55.74
2022-11-10T23:40:41.126Z,55.54
2022-11-10T23:43:01.385Z,55.55
2022-11-10T23:45:21.510Z,55.73
2022-11-10T23:47:42.061Z,55.36
2022-11-10T23:50:03.239Z,55.35
2022-11-10T23:52:23.523Z,55.43
2022-11-10T23:54:43.743Z,55.61
2022-11-10T23:57:04.234Z,55.38
2022-11-10T23:59:24.386Z,55.65
